Aviation Digital Data Service (ADDS)

Output produced by METARs form (0747 UTC 24 May 2018)
found at http://www.aviationweather.gov/adds/metars/
 
VCBI 240710Z 22010KT 9000 FEW012 BKN016 FEW018CB 26/23 Q1007 NOSIG RMK W/SW/S
TAF VCBI 240340Z 2406/2512 27012KT 9000 SCT016 FEW020CB TX29/2407Z TN24/2500Z 
     PROB40 
     TEMPO 2407/2410 2413/2416 6000 -TSRA/SHRA SCT012 FEW016CB BKN080